sensor_id;sensor_type;location;lat;lon;timestamp;P1;durP1;ratioP1;P2;durP2;ratioP2
45812;SDS011;31519;45.408;10.962;2024-03-08T00:00:20;5.15;;;3.78;;
45812;SDS011;31519;45.408;10.962;2024-03-08T00:03:10;5.38;;;3.53;;
45812;SDS011;31519;45.408;10.962;2024-03-08T00:05:39;8.73;;;3.92;;
45812;SDS011;31519;45.408;10.962;2024-03-08T00:08:07;5.32;;;3.70;;
45812;SDS011;31519;45.408;10.962;2024-03-08T00:10:38;5.03;;;3.10;;
45812;SDS011;31519;45.408;10.962;2024-03-08T00:13:07;7.43;;;3.78;;
45812;SDS011;31519;45.408;10.962;2024-03-08T00:15:35;6.03;;;3.47;;
45812;SDS011;31519;45.408;10.962;2024-03-08T00:18:03;6.00;;;3.30;;
45812;SDS011;31519;45.408;10.962;2024-03-08T00:20:32;4.00;;;3.20;;
45812;SDS011;31519;45.408;10.962;2024-03-08T00:23:01;8.32;;;3.60;;
45812;SDS011;31519;45.408;10.962;2024-03-08T00:25:29;6.13;;;3.88;;
45812;SDS011;31519;45.408;10.962;2024-03-08T00:27:57;7.38;;;3.53;;
45812;SDS011;31519;45.408;10.962;2024-03-08T00:30:28;4.75;;;3.38;;
45812;SDS011;31519;45.408;10.962;2024-03-08T00:32:56;5.55;;;3.40;;
45812;SDS011;31519;45.408;10.962;2024-03-08T00:35:24;5.47;;;3.63;;
45812;SDS011;31519;45.408;10.962;2024-03-08T00:37:53;5.97;;;3.92;;
45812;SDS011;31519;45.408;10.962;2024-03-08T00:40:24;10.52;;;4.03;;
45812;SDS011;31519;45.408;10.962;2024-03-08T00:42:52;6.90;;;3.65;;
45812;SDS011;31519;45.408;10.962;2024-03-08T00:45:21;5.78;;;3.97;;
45812;SDS011;31519;45.408;10.962;2024-03-08T00:47:51;7.75;;;3.33;;
45812;SDS011;31519;45.408;10.962;2024-03-08T00:50:19;5.50;;;3.50;;
45812;SDS011;31519;45.408;10.962;2024-03-08T00:52:47;8.10;;;4.07;;
45812;SDS011;31519;45.408;10.962;2024-03-08T00:55:16;6.90;;;3.60;;
45812;SDS011;31519;45.408;10.962;2024-03-08T00:57:44;7.93;;;3.92;;
45812;SDS011;31519;45.408;10.962;2024-03-08T01:00:13;8.18;;;4.45;;
45812;SDS011;31519;45.408;10.962;2024-03-08T01:02:42;12.18;;;3.72;;
45812;SDS011;31519;45.408;10.962;2024-03-08T01:05:10;3.40;;;3.05;;
45812;SDS011;31519;45.408;10.962;2024-03-08T01:07:38;4.90;;;3.63;;
45812;SDS011;31519;45.408;10.962;2024-03-08T01:10:07;5.47;;;3.83;;
45812;SDS011;31519;45.408;10.962;2024-03-08T01:12:40;5.85;;;3.72;;
45812;SDS011;31519;45.408;10.962;2024-03-08T01:15:10;6.72;;;3.97;;
45812;SDS011;31519;45.408;10.962;2024-03-08T01:17:39;6.32;;;4.07;;
45812;SDS011;31519;45.408;10.962;2024-03-08T01:20:08;6.15;;;4.47;;
45812;SDS011;31519;45.408;10.962;2024-03-08T01:22:40;7.97;;;4.18;;
45812;SDS011;31519;45.408;10.962;2024-03-08T01:25:08;7.35;;;4.15;;
45812;SDS011;31519;45.408;10.962;2024-03-08T01:27:36;6.18;;;3.83;;
45812;SDS011;31519;45.408;10.962;2024-03-08T01:30:05;8.15;;;4.38;;
45812;SDS011;31519;45.408;10.962;2024-03-08T01:32:34;10.57;;;4.80;;
45812;SDS011;31519;45.408;10.962;2024-03-08T01:35:02;9.32;;;4.35;;
45812;SDS011;31519;45.408;10.962;2024-03-08T01:37:31;6.90;;;4.47;;
45812;SDS011;31519;45.408;10.962;2024-03-08T01:39:59;7.50;;;4.28;;
45812;SDS011;31519;45.408;10.962;2024-03-08T01:42:27;8.32;;;4.28;;
45812;SDS011;31519;45.408;10.962;2024-03-08T01:44:55;6.57;;;4.45;;
45812;SDS011;31519;45.408;10.962;2024-03-08T01:47:24;7.28;;;4.53;;
45812;SDS011;31519;45.408;10.962;2024-03-08T01:49:53;6.25;;;4.15;;
45812;SDS011;31519;45.408;10.962;2024-03-08T01:52:21;7.55;;;4.57;;
45812;SDS011;31519;45.408;10.962;2024-03-08T01:54:51;8.15;;;4.82;;
45812;SDS011;31519;45.408;10.962;2024-03-08T01:57:20;6.55;;;4.38;;
45812;SDS011;31519;45.408;10.962;2024-03-08T01:59:49;6.90;;;4.20;;
45812;SDS011;31519;45.408;10.962;2024-03-08T02:02:18;11.02;;;4.65;;
45812;SDS011;31519;45.408;10.962;2024-03-08T02:04:48;7.00;;;4.28;;
45812;SDS011;31519;45.408;10.962;2024-03-08T02:07:16;7.05;;;4.25;;
45812;SDS011;31519;45.408;10.962;2024-03-08T02:09:45;9.70;;;4.93;;
45812;SDS011;31519;45.408;10.962;2024-03-08T02:12:13;8.68;;;4.85;;
45812;SDS011;31519;45.408;10.962;2024-03-08T02:14:41;8.85;;;4.35;;
45812;SDS011;31519;45.408;10.962;2024-03-08T02:17:11;6.32;;;4.45;;
45812;SDS011;31519;45.408;10.962;2024-03-08T02:19:40;6.65;;;4.82;;
45812;SDS011;31519;45.408;10.962;2024-03-08T02:22:09;7.75;;;5.05;;
45812;SDS011;31519;45.408;10.962;2024-03-08T02:24:38;9.25;;;4.80;;
45812;SDS011;31519;45.408;10.962;2024-03-08T02:27:06;8.38;;;5.10;;
45812;SDS011;31519;45.408;10.962;2024-03-08T02:29:35;6.90;;;4.93;;
45812;SDS011;31519;45.408;10.962;2024-03-08T02:32:04;9.05;;;5.10;;
45812;SDS011;31519;45.408;10.962;2024-03-08T02:34:32;7.55;;;5.15;;
45812;SDS011;31519;45.408;10.962;2024-03-08T02:37:01;9.85;;;5.20;;
45812;SDS011;31519;45.408;10.962;2024-03-08T02:39:29;7.78;;;4.97;;
45812;SDS011;31519;45.408;10.962;2024-03-08T02:41:59;17.25;;;6.57;;
45812;SDS011;31519;45.408;10.962;2024-03-08T02:44:28;10.43;;;6.32;;
45812;SDS011;31519;45.408;10.962;2024-03-08T02:46:56;11.48;;;6.57;;
45812;SDS011;31519;45.408;10.962;2024-03-08T02:49:25;6.97;;;5.25;;
45812;SDS011;31519;45.408;10.962;2024-03-08T02:51:54;10.80;;;6.63;;
45812;SDS011;31519;45.408;10.962;2024-03-08T02:54:24;8.52;;;4.90;;
45812;SDS011;31519;45.408;10.962;2024-03-08T02:56:53;8.65;;;5.35;;
45812;SDS011;31519;45.408;10.962;2024-03-08T02:59:21;6.93;;;4.85;;
45812;SDS011;31519;45.408;10.962;2024-03-08T03:01:51;8.32;;;4.55;;
45812;SDS011;31519;45.408;10.962;2024-03-08T03:04:19;11.75;;;5.18;;
45812;SDS011;31519;45.408;10.962;2024-03-08T03:06:47;7.40;;;4.70;;
45812;SDS011;31519;45.408;10.962;2024-03-08T03:09:16;7.22;;;4.75;;
45812;SDS011;31519;45.408;10.962;2024-03-08T03:11:51;6.07;;;4.20;;
45812;SDS011;31519;45.408;10.962;2024-03-08T03:14:21;7.95;;;4.13;;
45812;SDS011;31519;45.408;10.962;2024-03-08T03:16:49;10.05;;;4.80;;
45812;SDS011;31519;45.408;10.962;2024-03-08T03:19:17;9.73;;;4.75;;
45812;SDS011;31519;45.408;10.962;2024-03-08T03:21:45;8.32;;;4.10;;
45812;SDS011;31519;45.408;10.962;2024-03-08T03:24:14;7.22;;;4.78;;
45812;SDS011;31519;45.408;10.962;2024-03-08T03:26:44;7.80;;;4.43;;
45812;SDS011;31519;45.408;10.962;2024-03-08T03:29:14;11.10;;;5.50;;
45812;SDS011;31519;45.408;10.962;2024-03-08T03:31:43;9.48;;;5.28;;
45812;SDS011;31519;45.408;10.962;2024-03-08T03:34:14;5.80;;;3.85;;
45812;SDS011;31519;45.408;10.962;2024-03-08T03:36:42;6.72;;;3.90;;
45812;SDS011;31519;45.408;10.962;2024-03-08T03:39:13;6.60;;;4.00;;
45812;SDS011;31519;45.408;10.962;2024-03-08T03:41:44;7.72;;;4.40;;
45812;SDS011;31519;45.408;10.962;2024-03-08T03:44:14;7.40;;;3.95;;
45812;SDS011;31519;45.408;10.962;2024-03-08T03:46:42;4.25;;;3.53;;
45812;SDS011;31519;45.408;10.962;2024-03-08T03:49:13;5.85;;;3.47;;
45812;SDS011;31519;45.408;10.962;2024-03-08T03:51:41;5.82;;;3.60;;
45812;SDS011;31519;45.408;10.962;2024-03-08T03:54:10;6.63;;;4.00;;
45812;SDS011;31519;45.408;10.962;2024-03-08T03:56:38;8.90;;;3.78;;
45812;SDS011;31519;45.408;10.962;2024-03-08T03:59:10;6.53;;;3.75;;
45812;SDS011;31519;45.408;10.962;2024-03-08T04:01:41;5.93;;;3.55;;
45812;SDS011;31519;45.408;10.962;2024-03-08T04:04:11;6.60;;;3.27;;
45812;SDS011;31519;45.408;10.962;2024-03-08T04:06:40;6.55;;;3.63;;
45812;SDS011;31519;45.408;10.962;2024-03-08T04:09:08;6.88;;;3.55;;
45812;SDS011;31519;45.408;10.962;2024-03-08T04:11:37;3.97;;;3.08;;
45812;SDS011;31519;45.408;10.962;2024-03-08T04:14:05;4.10;;;2.67;;
45812;SDS011;31519;45.408;10.962;2024-03-08T04:16:33;9.77;;;2.92;;
45812;SDS011;31519;45.408;10.962;2024-03-08T04:19:01;3.65;;;2.70;;
45812;SDS011;31519;45.408;10.962;2024-03-08T04:21:32;5.35;;;2.78;;
45812;SDS011;31519;45.408;10.962;2024-03-08T04:24:00;3.35;;;2.65;;
45812;SDS011;31519;45.408;10.962;2024-03-08T04:26:28;6.18;;;3.50;;
45812;SDS011;31519;45.408;10.962;2024-03-08T04:28:57;3.55;;;2.75;;
45812;SDS011;31519;45.408;10.962;2024-03-08T04:31:25;7.60;;;2.90;;
45812;SDS011;31519;45.408;10.962;2024-03-08T04:33:54;7.10;;;2.92;;
45812;SDS011;31519;45.408;10.962;2024-03-08T04:36:22;5.45;;;2.85;;
45812;SDS011;31519;45.408;10.962;2024-03-08T04:38:52;4.32;;;3.15;;
45812;SDS011;31519;45.408;10.962;2024-03-08T04:41:20;6.32;;;3.22;;
45812;SDS011;31519;45.408;10.962;2024-03-08T04:43:49;5.07;;;3.35;;
45812;SDS011;31519;45.408;10.962;2024-03-08T04:46:17;4.10;;;3.03;;
45812;SDS011;31519;45.408;10.962;2024-03-08T04:48:45;4.43;;;2.75;;
45812;SDS011;31519;45.408;10.962;2024-03-08T04:51:14;5.15;;;2.78;;
45812;SDS011;31519;45.408;10.962;2024-03-08T04:53:43;5.00;;;3.60;;
45812;SDS011;31519;45.408;10.962;2024-03-08T04:56:11;3.63;;;2.95;;
45812;SDS011;31519;45.408;10.962;2024-03-08T04:58:40;6.72;;;3.58;;
45812;SDS011;31519;45.408;10.962;2024-03-08T05:01:07;4.07;;;2.90;;
45812;SDS011;31519;45.408;10.962;2024-03-08T05:03:38;4.57;;;3.05;;
45812;SDS011;31519;45.408;10.962;2024-03-08T05:06:07;4.35;;;2.38;;
45812;SDS011;31519;45.408;10.962;2024-03-08T05:08:36;9.52;;;2.42;;
45812;SDS011;31519;45.408;10.962;2024-03-08T05:11:04;7.63;;;2.88;;
45812;SDS011;31519;45.408;10.962;2024-03-08T05:13:35;9.45;;;3.10;;
45812;SDS011;31519;45.408;10.962;2024-03-08T05:16:03;6.43;;;2.70;;
45812;SDS011;31519;45.408;10.962;2024-03-08T05:18:31;3.88;;;2.80;;
45812;SDS011;31519;45.408;10.962;2024-03-08T05:21:00;6.85;;;2.90;;
45812;SDS011;31519;45.408;10.962;2024-03-08T05:23:28;7.00;;;3.53;;
45812;SDS011;31519;45.408;10.962;2024-03-08T05:25:56;4.70;;;3.05;;
45812;SDS011;31519;45.408;10.962;2024-03-08T05:28:25;5.97;;;3.40;;
45812;SDS011;31519;45.408;10.962;2024-03-08T05:30:53;6.55;;;3.30;;
45812;SDS011;31519;45.408;10.962;2024-03-08T05:33:24;4.40;;;3.40;;
45812;SDS011;31519;45.408;10.962;2024-03-08T05:35:52;5.32;;;3.10;;
45812;SDS011;31519;45.408;10.962;2024-03-08T05:38:21;7.95;;;3.28;;
45812;SDS011;31519;45.408;10.962;2024-03-08T05:40:50;5.00;;;3.50;;
45812;SDS011;31519;45.408;10.962;2024-03-08T05:43:19;5.18;;;3.05;;
45812;SDS011;31519;45.408;10.962;2024-03-08T05:45:47;9.20;;;3.22;;
45812;SDS011;31519;45.408;10.962;2024-03-08T05:48:16;7.65;;;3.53;;
45812;SDS011;31519;45.408;10.962;2024-03-08T05:50:46;4.50;;;3.42;;
45812;SDS011;31519;45.408;10.962;2024-03-08T05:53:14;4.45;;;3.20;;
45812;SDS011;31519;45.408;10.962;2024-03-08T05:55:42;4.55;;;3.15;;
45812;SDS011;31519;45.408;10.962;2024-03-08T05:58:11;6.20;;;3.10;;
45812;SDS011;31519;45.408;10.962;2024-03-08T06:00:39;5.28;;;3.08;;
45812;SDS011;31519;45.408;10.962;2024-03-08T06:03:07;4.40;;;2.88;;
45812;SDS011;31519;45.408;10.962;2024-03-08T06:05:36;3.75;;;2.80;;
45812;SDS011;31519;45.408;10.962;2024-03-08T06:08:05;5.53;;;3.13;;
45812;SDS011;31519;45.408;10.962;2024-03-08T06:10:35;5.68;;;3.65;;
45812;SDS011;31519;45.408;10.962;2024-03-08T06:13:04;6.25;;;3.30;;
45812;SDS011;31519;45.408;10.962;2024-03-08T06:15:32;7.13;;;3.10;;
45812;SDS011;31519;45.408;10.962;2024-03-08T06:18:00;6.22;;;3.28;;
45812;SDS011;31519;45.408;10.962;2024-03-08T06:20:29;4.43;;;3.08;;
45812;SDS011;31519;45.408;10.962;2024-03-08T06:22:57;4.18;;;2.88;;
45812;SDS011;31519;45.408;10.962;2024-03-08T06:25:25;4.72;;;3.13;;
45812;SDS011;31519;45.408;10.962;2024-03-08T06:27:53;4.70;;;3.10;;
45812;SDS011;31519;45.408;10.962;2024-03-08T06:30:21;5.47;;;3.50;;
45812;SDS011;31519;45.408;10.962;2024-03-08T06:32:50;12.57;;;3.00;;
45812;SDS011;31519;45.408;10.962;2024-03-08T06:35:19;5.85;;;2.83;;
45812;SDS011;31519;45.408;10.962;2024-03-08T08:23:54;6.07;;;4.15;;
45812;SDS011;31519;45.408;10.962;2024-03-08T08:26:23;6.22;;;4.10;;
45812;SDS011;31519;45.408;10.962;2024-03-08T08:28:54;6.25;;;4.10;;
45812;SDS011;31519;45.408;10.962;2024-03-08T08:31:23;6.75;;;3.60;;
45812;SDS011;31519;45.408;10.962;2024-03-08T08:33:52;7.03;;;4.93;;
45812;SDS011;31519;45.408;10.962;2024-03-08T08:36:26;8.02;;;4.97;;
45812;SDS011;31519;45.408;10.962;2024-03-08T08:38:54;8.55;;;4.32;;
45812;SDS011;31519;45.408;10.962;2024-03-08T08:41:24;4.65;;;3.50;;
45812;SDS011;31519;45.408;10.962;2024-03-08T08:43:53;5.13;;;3.80;;
45812;SDS011;31519;45.408;10.962;2024-03-08T08:46:36;5.13;;;3.67;;
45812;SDS011;31519;45.408;10.962;2024-03-08T08:49:09;7.28;;;3.83;;
45812;SDS011;31519;45.408;10.962;2024-03-08T08:51:48;7.93;;;4.57;;
45812;SDS011;31519;45.408;10.962;2024-03-08T08:54:18;9.18;;;4.57;;
45812;SDS011;31519;45.408;10.962;2024-03-08T08:56:46;7.95;;;4.55;;
45812;SDS011;31519;45.408;10.962;2024-03-08T08:59:17;7.32;;;4.35;;
45812;SDS011;31519;45.408;10.962;2024-03-08T09:01:50;7.80;;;4.38;;
45812;SDS011;31519;45.408;10.962;2024-03-08T09:04:21;6.57;;;4.20;;
45812;SDS011;31519;45.408;10.962;2024-03-08T09:06:50;9.43;;;4.60;;
45812;SDS011;31519;45.408;10.962;2024-03-08T09:09:19;7.57;;;4.00;;
45812;SDS011;31519;45.408;10.962;2024-03-08T09:11:47;8.13;;;3.75;;
45812;SDS011;31519;45.408;10.962;2024-03-08T09:14:17;8.48;;;4.20;;
45812;SDS011;31519;45.408;10.962;2024-03-08T09:16:45;7.10;;;4.30;;
45812;SDS011;31519;45.408;10.962;2024-03-08T09:19:15;6.97;;;5.20;;
45812;SDS011;31519;45.408;10.962;2024-03-08T09:21:47;6.45;;;4.55;;
45812;SDS011;31519;45.408;10.962;2024-03-08T09:24:16;5.30;;;3.90;;
45812;SDS011;31519;45.408;10.962;2024-03-08T09:26:44;6.55;;;4.30;;
45812;SDS011;31519;45.408;10.962;2024-03-08T09:29:12;7.05;;;4.20;;
45812;SDS011;31519;45.408;10.962;2024-03-08T09:31:40;6.97;;;4.50;;
45812;SDS011;31519;45.408;10.962;2024-03-08T09:34:09;9.57;;;4.20;;
45812;SDS011;31519;45.408;10.962;2024-03-08T09:36:46;6.88;;;4.10;;
45812;SDS011;31519;45.408;10.962;2024-03-08T09:39:15;6.80;;;3.55;;
45812;SDS011;31519;45.408;10.962;2024-03-08T09:41:44;5.60;;;3.88;;
45812;SDS011;31519;45.408;10.962;2024-03-08T09:44:16;6.07;;;4.47;;
45812;SDS011;31519;45.408;10.962;2024-03-08T09:46:44;15.43;;;6.13;;
45812;SDS011;31519;45.408;10.962;2024-03-08T09:49:15;7.82;;;4.22;;
45812;SDS011;31519;45.408;10.962;2024-03-08T09:51:44;7.70;;;4.05;;
45812;SDS011;31519;45.408;10.962;2024-03-08T09:54:14;5.70;;;4.30;;
45812;SDS011;31519;45.408;10.962;2024-03-08T09:56:51;6.18;;;4.13;;
45812;SDS011;31519;45.408;10.962;2024-03-08T09:59:20;5.80;;;3.85;;
45812;SDS011;31519;45.408;10.962;2024-03-08T10:01:51;6.43;;;4.30;;
45812;SDS011;31519;45.408;10.962;2024-03-08T10:04:20;8.95;;;4.50;;
45812;SDS011;31519;45.408;10.962;2024-03-08T10:06:50;5.30;;;3.50;;
45812;SDS011;31519;45.408;10.962;2024-03-08T10:09:18;9.35;;;4.55;;
45812;SDS011;31519;45.408;10.962;2024-03-08T10:11:48;8.82;;;4.50;;
45812;SDS011;31519;45.408;10.962;2024-03-08T10:14:17;8.10;;;3.92;;
45812;SDS011;31519;45.408;10.962;2024-03-08T10:16:46;11.60;;;3.95;;
45812;SDS011;31519;45.408;10.962;2024-03-08T10:19:15;6.05;;;4.25;;
45812;SDS011;31519;45.408;10.962;2024-03-08T10:21:48;6.95;;;4.03;;
45812;SDS011;31519;45.408;10.962;2024-03-08T10:24:17;5.72;;;4.10;;
45812;SDS011;31519;45.408;10.962;2024-03-08T10:26:45;8.55;;;5.40;;
45812;SDS011;31519;45.408;10.962;2024-03-08T10:29:14;6.15;;;4.22;;
45812;SDS011;31519;45.408;10.962;2024-03-08T10:31:45;8.70;;;4.25;;
45812;SDS011;31519;45.408;10.962;2024-03-08T10:34:14;8.23;;;5.07;;
45812;SDS011;31519;45.408;10.962;2024-03-08T10:36:42;7.65;;;4.75;;
45812;SDS011;31519;45.408;10.962;2024-03-08T10:39:22;7.32;;;4.53;;
45812;SDS011;31519;45.408;10.962;2024-03-08T10:42:14;9.68;;;4.15;;
45812;SDS011;31519;45.408;10.962;2024-03-08T10:44:53;11.93;;;5.30;;
45812;SDS011;31519;45.408;10.962;2024-03-08T10:47:31;8.82;;;4.53;;
45812;SDS011;31519;45.408;10.962;2024-03-08T10:50:18;4.15;;;3.53;;
45812;SDS011;31519;45.408;10.962;2024-03-08T10:52:52;6.45;;;4.43;;
45812;SDS011;31519;45.408;10.962;2024-03-08T10:55:21;5.13;;;3.30;;
45812;SDS011;31519;45.408;10.962;2024-03-08T10:57:51;7.68;;;5.30;;
45812;SDS011;31519;45.408;10.962;2024-03-08T11:00:20;5.15;;;3.83;;
45812;SDS011;31519;45.408;10.962;2024-03-08T11:02:54;6.20;;;4.13;;
45812;SDS011;31519;45.408;10.962;2024-03-08T11:05:41;6.53;;;3.58;;
45812;SDS011;31519;45.408;10.962;2024-03-08T11:10:49;7.15;;;4.20;;
45812;SDS011;31519;45.408;10.962;2024-03-08T11:18:53;5.30;;;3.58;;
45812;SDS011;31519;45.408;10.962;2024-03-08T11:21:23;8.68;;;4.00;;
45812;SDS011;31519;45.408;10.962;2024-03-08T11:24:00;6.28;;;4.32;;
45812;SDS011;31519;45.408;10.962;2024-03-08T11:26:31;7.85;;;4.10;;
45812;SDS011;31519;45.408;10.962;2024-03-08T11:32:31;6.65;;;3.60;;
45812;SDS011;31519;45.408;10.962;2024-03-08T11:34:55;4.60;;;3.53;;
45812;SDS011;31519;45.408;10.962;2024-03-08T11:37:24;10.25;;;4.47;;
45812;SDS011;31519;45.408;10.962;2024-03-08T11:39:59;5.18;;;3.75;;
45812;SDS011;31519;45.408;10.962;2024-03-08T11:42:30;5.30;;;3.72;;
45812;SDS011;31519;45.408;10.962;2024-03-08T11:44:59;7.70;;;4.30;;
45812;SDS011;31519;45.408;10.962;2024-03-08T11:47:27;5.63;;;3.90;;
45812;SDS011;31519;45.408;10.962;2024-03-08T11:49:57;6.07;;;2.88;;
45812;SDS011;31519;45.408;10.962;2024-03-08T11:52:27;5.40;;;2.92;;
45812;SDS011;31519;45.408;10.962;2024-03-08T11:54:57;3.72;;;2.92;;
45812;SDS011;31519;45.408;10.962;2024-03-08T11:57:26;5.03;;;3.38;;
45812;SDS011;31519;45.408;10.962;2024-03-08T11:59:56;6.88;;;3.42;;
45812;SDS011;31519;45.408;10.962;2024-03-08T12:02:25;5.38;;;3.17;;
45812;SDS011;31519;45.408;10.962;2024-03-08T12:04:57;9.52;;;2.92;;
45812;SDS011;31519;45.408;10.962;2024-03-08T12:07:29;5.57;;;2.85;;
45812;SDS011;31519;45.408;10.962;2024-03-08T12:10:19;3.67;;;3.38;;
45812;SDS011;31519;45.408;10.962;2024-03-08T12:12:53;6.72;;;3.28;;
45812;SDS011;31519;45.408;10.962;2024-03-08T12:15:27;3.88;;;3.10;;
45812;SDS011;31519;45.408;10.962;2024-03-08T12:17:57;3.45;;;2.92;;
45812;SDS011;31519;45.408;10.962;2024-03-08T12:20:26;5.53;;;3.58;;
45812;SDS011;31519;45.408;10.962;2024-03-08T12:25:31;5.53;;;2.72;;
45812;SDS011;31519;45.408;10.962;2024-03-08T12:28:07;5.57;;;3.38;;
45812;SDS011;31519;45.408;10.962;2024-03-08T12:33:19;3.80;;;3.20;;
45812;SDS011;31519;45.408;10.962;2024-03-08T12:35:53;4.15;;;3.40;;
45812;SDS011;31519;45.408;10.962;2024-03-08T12:38:27;4.07;;;3.40;;
45812;SDS011;31519;45.408;10.962;2024-03-08T12:40:57;4.05;;;3.38;;
45812;SDS011;31519;45.408;10.962;2024-03-08T12:43:30;7.32;;;3.30;;
45812;SDS011;31519;45.408;10.962;2024-03-08T12:45:59;5.10;;;3.47;;
45812;SDS011;31519;45.408;10.962;2024-03-08T12:48:28;5.38;;;3.00;;
45812;SDS011;31519;45.408;10.962;2024-03-08T12:50:56;4.88;;;3.28;;
45812;SDS011;31519;45.408;10.962;2024-03-08T12:53:25;5.30;;;3.15;;
45812;SDS011;31519;45.408;10.962;2024-03-08T12:55:56;4.40;;;3.13;;
45812;SDS011;31519;45.408;10.962;2024-03-08T12:58:25;6.43;;;3.05;;
45812;SDS011;31519;45.408;10.962;2024-03-08T13:00:54;3.72;;;2.90;;
45812;SDS011;31519;45.408;10.962;2024-03-08T13:03:22;4.45;;;2.80;;
45812;SDS011;31519;45.408;10.962;2024-03-08T13:05:51;4.65;;;3.05;;
45812;SDS011;31519;45.408;10.962;2024-03-08T13:08:19;9.43;;;4.15;;
45812;SDS011;31519;45.408;10.962;2024-03-08T13:10:49;5.88;;;3.92;;
45812;SDS011;31519;45.408;10.962;2024-03-08T13:13:19;4.72;;;3.05;;
45812;SDS011;31519;45.408;10.962;2024-03-08T13:15:51;4.57;;;3.22;;
45812;SDS011;31519;45.408;10.962;2024-03-08T13:18:22;5.25;;;3.40;;
45812;SDS011;31519;45.408;10.962;2024-03-08T13:20:55;5.75;;;4.05;;
45812;SDS011;31519;45.408;10.962;2024-03-08T13:23:25;4.45;;;3.58;;
45812;SDS011;31519;45.408;10.962;2024-03-08T13:25:53;5.93;;;3.45;;
45812;SDS011;31519;45.408;10.962;2024-03-08T13:28:22;6.80;;;4.22;;
45812;SDS011;31519;45.408;10.962;2024-03-08T13:30:55;8.15;;;4.00;;
45812;SDS011;31519;45.408;10.962;2024-03-08T13:33:31;6.32;;;4.03;;
45812;SDS011;31519;45.408;10.962;2024-03-08T13:35:59;5.18;;;3.90;;
45812;SDS011;31519;45.408;10.962;2024-03-08T13:38:32;5.63;;;3.00;;
45812;SDS011;31519;45.408;10.962;2024-03-08T13:41:01;4.30;;;3.42;;
45812;SDS011;31519;45.408;10.962;2024-03-08T13:43:31;8.75;;;4.38;;
45812;SDS011;31519;45.408;10.962;2024-03-08T13:46:02;4.13;;;3.28;;
45812;SDS011;31519;45.408;10.962;2024-03-08T13:48:35;7.18;;;3.60;;
45812;SDS011;31519;45.408;10.962;2024-03-08T13:51:05;8.38;;;3.88;;
45812;SDS011;31519;45.408;10.962;2024-03-08T13:53:40;5.70;;;3.72;;
45812;SDS011;31519;45.408;10.962;2024-03-08T13:56:08;7.55;;;3.88;;
45812;SDS011;31519;45.408;10.962;2024-03-08T13:58:39;6.13;;;3.67;;
45812;SDS011;31519;45.408;10.962;2024-03-08T14:01:08;8.27;;;3.97;;
45812;SDS011;31519;45.408;10.962;2024-03-08T14:03:40;6.53;;;3.90;;
45812;SDS011;31519;45.408;10.962;2024-03-08T14:06:09;4.65;;;3.60;;
45812;SDS011;31519;45.408;10.962;2024-03-08T14:08:52;7.32;;;4.22;;
45812;SDS011;31519;45.408;10.962;2024-03-08T14:11:21;10.30;;;4.10;;
45812;SDS011;31519;45.408;10.962;2024-03-08T14:13:52;8.90;;;4.80;;
45812;SDS011;31519;45.408;10.962;2024-03-08T14:16:21;6.80;;;4.50;;
45812;SDS011;31519;45.408;10.962;2024-03-08T14:18:50;9.30;;;4.45;;
45812;SDS011;31519;45.408;10.962;2024-03-08T14:21:18;6.07;;;3.85;;
45812;SDS011;31519;45.408;10.962;2024-03-08T14:23:47;3.50;;;3.05;;
45812;SDS011;31519;45.408;10.962;2024-03-08T14:26:16;5.82;;;4.28;;
45812;SDS011;31519;45.408;10.962;2024-03-08T14:28:45;8.27;;;4.47;;
45812;SDS011;31519;45.408;10.962;2024-03-08T14:31:13;8.02;;;4.20;;
45812;SDS011;31519;45.408;10.962;2024-03-08T14:33:47;7.15;;;3.50;;
45812;SDS011;31519;45.408;10.962;2024-03-08T14:36:18;4.63;;;3.75;;
45812;SDS011;31519;45.408;10.962;2024-03-08T14:38:52;16.40;;;5.18;;
45812;SDS011;31519;45.408;10.962;2024-03-08T14:41:20;7.50;;;4.85;;
45812;SDS011;31519;45.408;10.962;2024-03-08T14:43:50;9.25;;;4.65;;
45812;SDS011;31519;45.408;10.962;2024-03-08T14:46:21;8.88;;;4.47;;
45812;SDS011;31519;45.408;10.962;2024-03-08T14:48:52;12.32;;;4.70;;
45812;SDS011;31519;45.408;10.962;2024-03-08T14:51:20;6.88;;;5.15;;
45812;SDS011;31519;45.408;10.962;2024-03-08T14:53:50;5.55;;;4.18;;
45812;SDS011;31519;45.408;10.962;2024-03-08T14:56:18;5.80;;;4.28;;
45812;SDS011;31519;45.408;10.962;2024-03-08T14:58:47;5.28;;;4.20;;
45812;SDS011;31519;45.408;10.962;2024-03-08T15:01:19;5.28;;;3.80;;
45812;SDS011;31519;45.408;10.962;2024-03-08T15:03:56;6.25;;;4.05;;
45812;SDS011;31519;45.408;10.962;2024-03-08T15:06:29;4.82;;;3.80;;
45812;SDS011;31519;45.408;10.962;2024-03-08T15:08:59;5.65;;;4.13;;
45812;SDS011;31519;45.408;10.962;2024-03-08T15:11:27;9.40;;;3.97;;
45812;SDS011;31519;45.408;10.962;2024-03-08T15:13:57;6.22;;;4.28;;
45812;SDS011;31519;45.408;10.962;2024-03-08T15:16:26;6.88;;;3.72;;
45812;SDS011;31519;45.408;10.962;2024-03-08T15:18:54;7.53;;;4.53;;
45812;SDS011;31519;45.408;10.962;2024-03-08T15:21:22;8.00;;;4.15;;
45812;SDS011;31519;45.408;10.962;2024-03-08T15:23:54;9.15;;;4.80;;
45812;SDS011;31519;45.408;10.962;2024-03-08T15:26:22;7.47;;;5.05;;
45812;SDS011;31519;45.408;10.962;2024-03-08T15:28:54;6.90;;;4.78;;
45812;SDS011;31519;45.408;10.962;2024-03-08T15:31:23;9.55;;;5.10;;
45812;SDS011;31519;45.408;10.962;2024-03-08T15:33:55;8.88;;;4.78;;
45812;SDS011;31519;45.408;10.962;2024-03-08T15:36:28;8.05;;;5.35;;
45812;SDS011;31519;45.408;10.962;2024-03-08T15:39:01;9.65;;;4.97;;
45812;SDS011;31519;45.408;10.962;2024-03-08T15:41:30;10.23;;;4.32;;
45812;SDS011;31519;45.408;10.962;2024-03-08T15:43:59;5.93;;;4.93;;
45812;SDS011;31519;45.408;10.962;2024-03-08T15:46:28;8.27;;;4.65;;
45812;SDS011;31519;45.408;10.962;2024-03-08T15:48:57;5.32;;;4.55;;
45812;SDS011;31519;45.408;10.962;2024-03-08T15:51:25;7.95;;;4.95;;
45812;SDS011;31519;45.408;10.962;2024-03-08T15:53:54;7.78;;;5.40;;
45812;SDS011;31519;45.408;10.962;2024-03-08T15:56:24;8.90;;;5.60;;
45812;SDS011;31519;45.408;10.962;2024-03-08T15:58:54;5.68;;;4.13;;
45812;SDS011;31519;45.408;10.962;2024-03-08T16:01:23;7.25;;;4.70;;
45812;SDS011;31519;45.408;10.962;2024-03-08T16:03:53;5.72;;;4.32;;
45812;SDS011;31519;45.408;10.962;2024-03-08T16:06:22;10.35;;;4.22;;
45812;SDS011;31519;45.408;10.962;2024-03-08T16:08:52;7.88;;;4.30;;
45812;SDS011;31519;45.408;10.962;2024-03-08T16:11:21;6.53;;;4.30;;
45812;SDS011;31519;45.408;10.962;2024-03-08T16:13:51;5.50;;;3.70;;
45812;SDS011;31519;45.408;10.962;2024-03-08T16:16:19;7.85;;;5.03;;
45812;SDS011;31519;45.408;10.962;2024-03-08T16:18:50;8.20;;;5.05;;
45812;SDS011;31519;45.408;10.962;2024-03-08T16:21:22;4.75;;;3.92;;
45812;SDS011;31519;45.408;10.962;2024-03-08T16:23:50;7.78;;;4.78;;
45812;SDS011;31519;45.408;10.962;2024-03-08T16:26:21;7.10;;;4.90;;
45812;SDS011;31519;45.408;10.962;2024-03-08T16:28:52;6.25;;;4.50;;
45812;SDS011;31519;45.408;10.962;2024-03-08T16:31:22;7.35;;;5.00;;
45812;SDS011;31519;45.408;10.962;2024-03-08T16:33:51;7.10;;;4.60;;
45812;SDS011;31519;45.408;10.962;2024-03-08T16:36:19;7.60;;;4.85;;
45812;SDS011;31519;45.408;10.962;2024-03-08T16:38:48;7.88;;;5.22;;
45812;SDS011;31519;45.408;10.962;2024-03-08T16:41:16;8.30;;;5.45;;
45812;SDS011;31519;45.408;10.962;2024-03-08T16:43:45;10.50;;;5.82;;
45812;SDS011;31519;45.408;10.962;2024-03-08T16:46:14;8.35;;;5.35;;
45812;SDS011;31519;45.408;10.962;2024-03-08T16:48:43;7.13;;;4.90;;
45812;SDS011;31519;45.408;10.962;2024-03-08T16:51:12;8.48;;;4.78;;